createdAt,value
2023-02-02T07:02:11.895Z,0.80
2023-02-02T07:04:39.108Z,0.90
2023-02-02T07:07:06.081Z,0.90
2023-02-02T07:09:34.026Z,0.83
2023-02-02T07:12:02.442Z,0.80
2023-02-02T07:14:29.483Z,0.90
2023-02-02T07:16:56.464Z,0.90
2023-02-02T07:19:23.507Z,0.80
2023-02-02T07:21:50.744Z,0.80
2023-02-02T07:24:18.927Z,0.90
2023-02-02T07:26:45.927Z,0.90
2023-02-02T07:29:14.196Z,1.00
2023-02-02T07:31:41.325Z,0.90
2023-02-02T07:34:08.370Z,0.90
2023-02-02T07:36:35.830Z,0.88
2023-02-02T07:39:04.617Z,0.90
2023-02-02T07:41:32.347Z,0.90
2023-02-02T07:43:59.367Z,0.80
2023-02-02T07:46:26.670Z,0.80
2023-02-02T07:48:58.207Z,0.90
2023-02-02T07:51:25.887Z,0.90
2023-02-02T07:53:54.150Z,1.10
2023-02-02T07:56:25.169Z,1.10
2023-02-02T07:58:53.178Z,1.00
2023-02-02T08:01:22.741Z,0.85
2023-02-02T08:03:50.549Z,1.03
2023-02-02T08:06:20.617Z,1.10
2023-02-02T08:08:48.167Z,1.03
2023-02-02T08:11:17.755Z,1.00
2023-02-02T08:13:45.284Z,0.98
2023-02-02T08:16:13.078Z,1.05
2023-02-02T08:18:40.465Z,1.10
2023-02-02T08:21:08.821Z,0.97
2023-02-02T08:23:36.610Z,1.10
2023-02-02T08:26:18.218Z,1.15
2023-02-02T08:28:46.566Z,1.30
2023-02-02T08:31:18.197Z,1.23
2023-02-02T08:33:45.257Z,1.40
2023-02-02T08:42:17.759Z,1.30
2023-02-02T08:46:00.085Z,1.38
2023-02-02T08:47:33.831Z,1.30
2023-02-02T08:50:04.704Z,1.30
2023-02-02T08:52:33.161Z,1.40
2023-02-02T08:55:00.332Z,1.40
2023-02-02T08:57:28.660Z,1.38
2023-02-02T08:59:55.808Z,2.47
2023-02-02T09:02:22.930Z,2.88
2023-02-02T09:05:28.437Z,5.63
2023-02-02T09:08:01.450Z,5.90
2023-02-02T09:10:31.869Z,7.65
2023-02-02T09:13:00.040Z,7.13
2023-02-02T09:15:27.105Z,6.60
2023-02-02T09:17:54.336Z,5.72
2023-02-02T09:20:22.248Z,5.20
2023-02-02T09:22:49.387Z,4.28
2023-02-02T09:25:16.474Z,4.63
2023-02-02T09:27:43.606Z,3.63
2023-02-02T09:30:12.195Z,3.97
2023-02-02T09:32:39.226Z,2.80
2023-02-02T09:35:06.564Z,2.70
2023-02-02T09:37:36.897Z,3.50
2023-02-02T09:40:04.446Z,2.97
2023-02-02T09:42:36.997Z,3.80
2023-02-02T09:45:16.787Z,4.07
2023-02-02T09:47:55.363Z,3.85
2023-02-02T09:50:40.957Z,5.70
2023-02-02T09:53:19.065Z,4.10
2023-02-02T09:55:48.720Z,3.65
2023-02-02T09:58:28.342Z,5.00
2023-02-02T10:00:59.643Z,4.18
2023-02-02T10:06:55.076Z,3.00
2023-02-02T10:09:24.140Z,3.60
2023-02-02T10:11:58.443Z,3.88
2023-02-02T10:14:32.169Z,3.30
2023-02-02T10:17:01.233Z,2.83
2023-02-02T10:19:30.713Z,3.28
2023-02-02T10:22:16.987Z,3.70
2023-02-02T10:24:46.231Z,3.60
2023-02-02T10:27:15.785Z,3.53
2023-02-02T10:29:54.141Z,3.30
2023-02-02T10:32:27.344Z,3.33
2023-02-02T10:35:10.897Z,3.53
2023-02-02T10:37:42.976Z,3.42
2023-02-02T10:40:30.009Z,3.10
2023-02-02T10:43:35.516Z,3.58
2023-02-02T10:46:04.159Z,2.88
2023-02-02T10:48:35.907Z,3.20
2023-02-02T10:51:22.386Z,2.90
2023-02-02T10:53:52.899Z,3.10
2023-02-02T10:56:23.075Z,2.92
2023-02-02T10:58:50.095Z,3.10
2023-02-02T11:01:18.294Z,3.25
2023-02-02T11:03:45.753Z,3.35
2023-02-02T11:06:33.227Z,3.97
2023-02-02T11:09:01.175Z,4.45
2023-02-02T11:11:48.434Z,3.80
2023-02-02T11:14:18.758Z,4.47
2023-02-02T11:17:00.694Z,4.28
2023-02-02T11:19:31.857Z,4.80
2023-02-02T11:21:59.944Z,6.10
2023-02-02T11:24:46.124Z,5.65
2023-02-02T11:27:16.652Z,5.20
2023-02-02T11:29:48.558Z,5.35
2023-02-02T11:32:30.555Z,5.13
2023-02-02T11:35:16.669Z,6.40
2023-02-02T11:37:56.128Z,6.40
2023-02-02T11:40:28.246Z,6.65
2023-02-02T11:43:00.968Z,5.97
2023-02-02T11:45:34.363Z,5.93
2023-02-02T11:48:21.820Z,7.22
2023-02-02T11:50:50.489Z,6.38
2023-02-02T11:53:25.774Z,6.25
2023-02-02T11:55:53.990Z,6.85
2023-02-02T11:58:27.626Z,8.23
2023-02-02T12:00:56.492Z,7.63
2023-02-02T12:03:33.004Z,9.45
2023-02-02T12:06:01.952Z,8.77
2023-02-02T12:12:07.467Z,9.68
2023-02-02T12:14:52.929Z,10.68
2023-02-02T12:17:20.888Z,11.97
2023-02-02T12:19:53.648Z,11.43
2023-02-02T12:22:36.580Z,10.02
2023-02-02T12:25:18.938Z,10.83
2023-02-02T12:27:51.194Z,10.27
2023-02-02T12:30:18.344Z,10.45
2023-02-02T12:33:04.308Z,11.45
2023-02-02T12:35:48.864Z,10.98
2023-02-02T12:38:21.520Z,15.13
2023-02-02T12:41:07.484Z,13.75
2023-02-02T12:43:53.454Z,13.57
2023-02-02T12:46:29.329Z,13.75
2023-02-02T12:49:15.117Z,13.85
2023-02-02T12:51:56.135Z,14.38
2023-02-02T12:54:51.829Z,13.95
2023-02-02T12:57:44.272Z,14.32
2023-02-02T13:00:24.468Z,13.50
2023-02-02T13:02:51.691Z,16.42
2023-02-02T13:05:21.650Z,15.07
2023-02-02T13:07:57.739Z,18.17
2023-02-02T13:10:28.186Z,17.15
2023-02-02T13:12:58.281Z,17.37
2023-02-02T13:15:30.266Z,18.80
2023-02-02T13:18:00.268Z,18.63
2023-02-02T13:20:38.193Z,20.27
2023-02-02T13:23:18.171Z,19.50
2023-02-02T13:25:48.239Z,19.27
2023-02-02T13:28:28.864Z,18.90
2023-02-02T13:30:59.654Z,20.23
2023-02-02T13:33:30.219Z,18.58
2023-02-02T13:35:59.741Z,18.42
2023-02-02T13:38:28.747Z,18.15
2023-02-02T13:40:56.541Z,16.77
2023-02-02T13:43:29.212Z,15.88
2023-02-02T13:46:00.550Z,14.90
2023-02-02T13:48:40.681Z,17.45
2023-02-02T13:51:22.024Z,16.05
2023-02-02T13:57:37.375Z,15.93
2023-02-02T14:00:21.929Z,15.40
2023-02-02T14:02:55.250Z,14.75
2023-02-02T14:05:26.144Z,15.07
2023-02-02T14:08:01.859Z,16.70
2023-02-02T14:10:31.684Z,14.75
